Time;durP1;ratioP1;P1;durP2;ratioP2;P2;SDS_P1;SDS_P2;PMS_P1;PMS_P2;Temp;Humidity;BMP_temperature;BMP_pressure;BME280_temperature;BME280_humidity;BME280_pressure;Samples;Min_cycle;Max_cycle;Signal;HPM_P1;HPM_P2
2023/06/27 00:01:14;;;;;;;10.40;4.55;;;;;;;-142.57;61.54;115900.28;5016076;28;20104;-85
2023/06/27 00:03:40;;;;;;;15.13;4.45;;;;;;;-142.57;61.76;115900.28;5015432;28;20036;-85
2023/06/27 00:06:05;;;;;;;10.13;4.63;;;;;;;-142.57;62.03;115900.28;5012337;28;20033;-81
2023/06/27 00:08:34;;;;;;;6.80;4.75;;;;;;;-142.57;62.12;115900.28;5012921;28;20025;-85
2023/06/27 00:11:00;;;;;;;7.63;4.35;;;;;;;-142.57;62.84;115900.28;5015189;28;20034;-83
2023/06/27 00:13:26;;;;;;;8.20;4.80;;;;;;;-142.57;63.48;115900.28;5015005;28;20435;-82
2023/06/27 00:15:52;;;;;;;6.75;4.60;;;;;;;-142.57;63.99;115900.28;5014889;28;20488;-83
2023/06/27 00:18:21;;;;;;;8.23;4.45;;;;;;;-142.57;65.30;115900.28;5015366;28;20549;-86
2023/06/27 00:20:48;;;;;;;7.88;4.70;;;;;;;-142.57;64.81;115900.28;4998487;28;20042;-84
2023/06/27 00:23:24;;;;;;;10.35;4.53;;;;;;;-142.57;64.32;115900.28;5020463;28;20026;-81
2023/06/27 00:25:50;;;;;;;6.72;4.50;;;;;;;-142.57;63.85;115900.28;5014805;28;20046;-86
2023/06/27 00:28:16;;;;;;;9.82;5.22;;;;;;;-142.57;63.91;115900.28;5020706;28;20107;-86
2023/06/27 00:30:42;;;;;;;7.93;4.30;;;;;;;-142.57;64.75;115900.28;5015852;28;20026;-85
2023/06/27 00:33:11;;;;;;;11.88;4.90;;;;;;;-142.57;65.01;115900.28;4998581;28;20049;-84
2023/06/27 00:35:40;;;;;;;6.05;4.25;;;;;;;-142.57;64.31;115900.28;5015913;28;20038;-84
2023/06/27 00:38:06;;;;;;;11.23;4.47;;;;;;;-142.57;63.59;115900.28;4998301;28;20026;-81
2023/06/27 00:40:31;;;;;;;10.52;4.50;;;;;;;-142.57;64.34;115900.28;4998019;28;20042;-83
2023/06/27 00:42:57;;;;;;;7.25;4.60;;;;;;;-142.57;64.68;115900.28;5017731;28;20038;-88
2023/06/27 00:45:23;;;;;;;11.63;4.75;;;;;;;-142.57;65.50;115900.28;5008186;28;20098;-83
2023/06/27 00:47:53;;;;;;;10.70;4.60;;;;;;;-142.57;65.96;115900.28;5012981;28;20080;-86
2023/06/27 00:50:24;;;;;;;11.48;4.85;;;;;;;-142.57;66.02;115900.28;5028710;28;20402;-85
2023/06/27 00:52:51;;;;;;;7.63;4.93;;;;;;;-142.57;65.34;115900.28;5029327;28;20088;-86
2023/06/27 00:55:41;;;;;;;8.05;4.45;;;;;;;-142.57;65.88;115900.28;5012143;28;20022;-83
2023/06/27 00:58:10;;;;;;;7.27;4.83;;;;;;;-142.57;67.54;115900.28;5001524;28;20447;-82
2023/06/27 01:00:35;;;;;;;6.60;4.57;;;;;;;-142.57;67.62;115900.28;5016744;28;20348;-88
2023/06/27 01:03:02;;;;;;;5.88;4.53;;;;;;;-142.57;68.86;115900.28;5016742;28;20102;-86
2023/06/27 01:05:29;;;;;;;7.95;4.68;;;;;;;-142.57;67.51;115900.28;5015005;28;20076;-83
2023/06/27 01:07:58;;;;;;;10.05;4.82;;;;;;;-142.57;67.43;115900.28;5013994;28;20033;-85
2023/06/27 01:10:34;;;;;;;8.30;4.70;;;;;;;-142.57;67.33;115900.28;4996743;28;20050;-85
2023/06/27 01:13:29;;;;;;;7.78;4.45;;;;;;;-142.57;67.11;115900.28;4995565;28;20281;-83
2023/06/27 01:15:59;;;;;;;9.32;4.57;;;;;;;-142.57;67.35;115900.28;4997203;28;20084;-83
2023/06/27 01:18:32;;;;;;;8.68;4.47;;;;;;;-142.57;68.14;115900.28;5014826;28;20022;-84
2023/06/27 01:20:59;;;;;;;6.43;4.70;;;;;;;-142.57;69.33;115900.28;4997629;28;20114;-84
2023/06/27 01:23:33;;;;;;;7.47;5.07;;;;;;;-142.57;70.36;115900.28;5015210;28;20029;-85
2023/06/27 01:26:09;;;;;;;7.63;4.72;;;;;;;-142.57;71.29;115900.28;4997212;28;20042;-86
2023/06/27 01:28:36;;;;;;;6.40;4.43;;;;;;;-142.57;70.79;115900.28;4997640;28;20064;-87
2023/06/27 01:31:03;;;;;;;6.63;4.15;;;;;;;-142.57;70.92;115900.28;5015444;28;20121;-87
2023/06/27 01:33:44;;;;;;;6.93;4.60;;;;;;;-142.57;71.33;115900.28;5015345;28;20169;-89
2023/06/27 01:36:18;;;;;;;7.10;4.50;;;;;;;-142.57;71.31;115900.28;5015128;28;20048;-84
2023/06/27 01:39:12;;;;;;;5.38;4.32;;;;;;;-142.57;71.62;115900.28;5015467;28;20137;-87
2023/06/27 01:41:40;;;;;;;10.35;4.40;;;;;;;-142.57;71.01;115900.28;5021482;28;20021;-80
2023/06/27 01:44:09;;;;;;;8.52;4.90;;;;;;;-142.57;70.99;115900.28;5033888;28;20038;-88
2023/06/27 01:46:36;;;;;;;9.45;4.85;;;;;;;-142.57;72.00;115900.28;5000918;28;20025;-88
2023/06/27 01:49:03;;;;;;;8.25;4.45;;;;;;;-142.57;73.35;115900.28;5016251;28;20037;-86
2023/06/27 01:51:29;;;;;;;7.15;5.07;;;;;;;-142.57;74.26;115900.28;5014801;28;20080;-90
2023/06/27 01:53:55;;;;;;;8.88;5.00;;;;;;;-142.57;74.77;115900.28;5013639;28;20088;-86
2023/06/27 01:56:21;;;;;;;9.70;5.10;;;;;;;-142.57;75.23;115900.28;4996122;28;20030;-84
2023/06/27 01:58:47;;;;;;;8.93;4.88;;;;;;;-142.57;75.62;115900.28;4996420;28;20041;-84
2023/06/27 02:01:12;;;;;;;7.53;4.80;;;;;;;-142.57;75.41;115900.28;4997335;28;20475;-81
2023/06/27 02:03:38;;;;;;;7.50;4.70;;;;;;;-142.57;74.31;115900.28;5015021;28;20135;-88
2023/06/27 02:06:04;;;;;;;7.20;4.88;;;;;;;-142.57;74.05;115900.28;5015380;28;20041;-88
2023/06/27 02:08:30;;;;;;;8.40;5.15;;;;;;;-142.57;74.49;115900.28;4997543;28;20038;-85
2023/06/27 02:10:55;;;;;;;6.85;4.47;;;;;;;-142.57;74.74;115900.28;4996847;28;20037;-84
2023/06/27 02:13:21;;;;;;;6.78;4.90;;;;;;;-142.57;75.14;115900.28;5015474;28;20034;-87
2023/06/27 02:15:46;;;;;;;10.30;5.15;;;;;;;-142.57;75.72;115900.28;5014924;28;20034;-88
2023/06/27 02:18:12;;;;;;;13.35;5.05;;;;;;;-142.57;76.54;115900.28;5014800;28;20142;-86
2023/06/27 02:20:37;;;;;;;9.32;4.55;;;;;;;-142.57;75.83;115900.28;5015033;28;20443;-87
2023/06/27 02:23:03;;;;;;;6.85;4.90;;;;;;;-142.57;74.69;115900.28;4997248;28;20070;-86
2023/06/27 02:25:28;;;;;;;6.25;4.53;;;;;;;-142.57;74.75;115900.28;5000615;28;20093;-82
2023/06/27 02:27:54;;;;;;;7.18;4.60;;;;;;;-142.57;75.72;115900.28;5027428;28;20033;-81
2023/06/27 02:30:19;;;;;;;7.93;4.68;;;;;;;-142.57;76.95;115900.28;5027891;28;20128;-86
2023/06/27 02:32:45;;;;;;;7.68;4.57;;;;;;;-142.57;77.93;115900.28;5027110;28;20057;-84
2023/06/27 02:35:15;;;;;;;7.82;4.50;;;;;;;-142.57;78.71;115900.28;5025506;28;20080;-84
2023/06/27 02:37:41;;;;;;;7.68;4.90;;;;;;;-142.57;78.98;115900.28;5024751;28;20034;-83
2023/06/27 02:40:07;;;;;;;7.55;4.97;;;;;;;-142.57;79.43;115900.28;5003499;28;20034;-84
2023/06/27 02:42:32;;;;;;;9.73;4.55;;;;;;;-142.57;78.70;115900.28;5021061;28;20372;-83
2023/06/27 02:44:58;;;;;;;6.88;4.78;;;;;;;-142.57;78.53;115900.28;5030224;28;20121;-83
2023/06/27 02:47:23;;;;;;;6.85;4.47;;;;;;;-142.57;78.17;115900.28;5028055;28;20372;-82
2023/06/27 02:49:49;;;;;;;9.77;4.60;;;;;;;-142.57;77.73;115900.28;5018452;28;20030;-82
2023/06/27 02:52:14;;;;;;;8.90;5.47;;;;;;;-142.57;77.39;115900.28;5019256;28;20064;-83
2023/06/27 02:54:42;;;;;;;7.78;5.40;;;;;;;-142.57;77.64;115900.28;5001734;28;20092;-84
2023/06/27 02:57:08;;;;;;;6.22;4.75;;;;;;;-142.57;77.08;115900.28;5018889;28;20498;-81
2023/06/27 02:59:36;;;;;;;8.13;4.78;;;;;;;-142.57;76.67;115900.28;4999005;28;20034;-85
2023/06/27 03:02:02;;;;;;;6.57;4.90;;;;;;;-142.57;78.01;115900.28;5012119;28;20044;-86
2023/06/27 03:04:28;;;;;;;6.75;4.93;;;;;;;-142.57;78.65;115900.28;5002118;28;20065;-87
2023/06/27 03:06:53;;;;;;;10.23;5.18;;;;;;;-142.57;78.68;115900.28;5015993;28;20033;-86
2023/06/27 03:09:19;;;;;;;9.75;5.43;;;;;;;-142.57;78.46;115900.28;4998844;28;20093;-85
2023/06/27 03:11:45;;;;;;;7.88;4.95;;;;;;;-142.57;79.35;115900.28;4998631;28;20038;-86
2023/06/27 03:14:17;;;;;;;5.93;4.63;;;;;;;-142.57;78.69;115900.28;5016338;28;20065;-83
2023/06/27 03:16:45;;;;;;;;;;;;;;;-142.57;78.59;115900.28;4998807;28;20042;-85
2023/06/27 03:19:10;;;;;;;8.70;5.10;;;;;;;-142.57;79.25;115900.28;4999137;28;19968;-87
2023/06/27 03:21:36;;;;;;;8.77;5.25;;;;;;;-142.57;80.05;115900.28;4983514;28;20048;-88
2023/06/27 03:24:03;;;;;;;6.78;5.32;;;;;;;-142.57;80.50;115900.28;5000515;28;20065;-87
2023/06/27 03:26:30;;;;;;;7.50;5.53;;;;;;;-142.57;82.03;115900.28;4998256;28;20479;-87
2023/06/27 03:28:58;;;;;;;8.35;5.15;;;;;;;-142.57;81.48;115900.28;4999812;28;20034;-90
2023/06/27 03:31:24;;;;;;;10.00;5.30;;;;;;;-142.57;81.83;115900.28;5000167;28;20133;-90
2023/06/27 03:33:52;;;;;;;9.10;5.72;;;;;;;-142.57;81.78;115900.28;4999247;28;20053;-87
2023/06/27 03:36:18;;;;;;;9.27;5.88;;;;;;;-142.57;82.74;115900.28;5001149;28;20026;-83
2023/06/27 03:38:45;;;;;;;7.57;5.80;;;;;;;-142.57;81.60;115900.28;5004227;28;20041;-89
2023/06/27 03:41:11;;;;;;;8.88;5.97;;;;;;;-142.57;81.51;115900.28;5023038;28;20040;-88
2023/06/27 03:43:37;;;;;;;11.40;6.18;;;;;;;-142.57;81.82;115900.28;5024803;28;20034;-88
2023/06/27 03:46:03;;;;;;;8.82;5.65;;;;;;;-142.57;80.97;115900.28;5025749;28;20097;-87
2023/06/27 03:48:29;;;;;;;11.57;6.47;;;;;;;-142.57;81.30;115900.28;5025391;28;20041;-87
2023/06/27 03:50:57;;;;;;;10.48;6.28;;;;;;;-142.57;82.94;115900.28;5007640;28;20033;-92
2023/06/27 03:53:23;;;;;;;12.05;6.25;;;;;;;-142.57;81.74;115900.28;5024581;28;20034;-90
2023/06/27 03:55:49;;;;;;;8.82;5.78;;;;;;;-142.57;81.30;115900.28;5020641;28;20025;-89
2023/06/27 03:58:18;;;;;;;8.48;5.53;;;;;;;-142.57;79.99;115900.28;5018009;28;20379;-89
2023/06/27 04:00:43;;;;;;;9.50;5.80;;;;;;;-142.57;81.39;115900.28;5002278;28;20066;-89
2023/06/27 04:03:08;;;;;;;15.15;5.55;;;;;;;-142.57;81.57;115900.28;5007695;28;20130;-84
2023/06/27 04:05:34;;;;;;;12.77;6.68;;;;;;;-142.57;82.02;115900.28;5030174;28;20072;-84
2023/06/27 04:08:19;;;;;;;8.85;5.65;;;;;;;-142.57;82.58;115900.28;5014019;28;20069;-84
2023/06/27 04:10:45;;;;;;;12.27;5.75;;;;;;;-142.57;81.09;115900.28;5033636;28;20073;-86
2023/06/27 04:13:11;;;;;;;10.70;5.68;;;;;;;-142.57;81.52;115900.28;5032743;28;20030;-85
2023/06/27 04:15:39;;;;;;;12.88;6.00;;;;;;;-142.57;81.90;115900.28;5011812;28;20073;-90
2023/06/27 04:18:07;;;;;;;16.17;6.95;;;;;;;-142.57;83.34;115900.28;4999437;28;20026;-81
2023/06/27 04:20:33;;;;;;;13.55;6.85;;;;;;;-142.57;84.48;115900.28;5009376;28;20026;-81
2023/06/27 04:22:59;;;;;;;9.32;6.32;;;;;;;-142.57;84.16;115900.28;5009617;28;20038;-87
2023/06/27 04:25:29;;;;;;;9.95;5.63;;;;;;;-142.57;82.68;115900.28;5018609;28;20034;-88
2023/06/27 04:27:56;;;;;;;16.13;6.45;;;;;;;-142.57;81.01;115900.28;5000459;28;20125;-84
2023/06/27 04:30:21;;;;;;;11.90;6.00;;;;;;;-142.57;81.50;115900.28;5019017;28;20490;-88
2023/06/27 04:32:50;;;;;;;8.07;5.75;;;;;;;-142.57;81.31;115900.28;5016832;28;20113;-85
2023/06/27 04:35:18;;;;;;;11.38;6.07;;;;;;;-142.57;80.77;115900.28;5016110;28;20109;-85
2023/06/27 04:37:46;;;;;;;9.75;6.88;;;;;;;-142.57;79.96;115900.28;5015246;28;20041;-84
2023/06/27 04:40:12;;;;;;;14.50;7.22;;;;;;;-142.57;80.46;115900.28;5015321;28;20479;-85
2023/06/27 04:42:38;;;;;;;14.75;6.80;;;;;;;-142.57;79.79;115900.28;4998617;28;20130;-86
2023/06/27 04:45:04;;;;;;;10.82;6.13;;;;;;;-142.57;78.63;115900.28;5002485;28;20089;-84
2023/06/27 04:47:30;;;;;;;11.68;5.97;;;;;;;-142.57;77.41;115900.28;5018033;28;20372;-91
2023/06/27 04:49:55;;;;;;;17.65;7.40;;;;;;;-142.57;76.66;115900.28;5017793;28;20045;-88
2023/06/27 04:52:20;;;;;;;20.52;8.43;;;;;;;-142.57;77.35;115900.28;5017052;28;20084;-89
2023/06/27 04:54:50;;;;;;;14.90;8.15;;;;;;;-142.57;77.21;115900.28;5019228;28;20034;-88
2023/06/27 04:57:17;;;;;;;14.75;9.13;;;;;;;-142.57;76.05;115900.28;5022361;28;20073;-87
2023/06/27 04:59:43;;;;;;;20.23;10.00;;;;;;;-142.57;75.48;115900.28;5015668;28;20105;-83
2023/06/27 05:02:08;;;;;;;14.63;9.65;;;;;;;-142.57;76.40;115900.28;5014367;28;20069;-83
2023/06/27 05:04:34;;;;;;;14.70;8.65;;;;;;;-142.57;75.83;115900.28;5015813;28;20037;-87
2023/06/27 05:06:59;;;;;;;16.15;9.07;;;;;;;-142.57;73.72;115900.28;4996642;28;20042;-83
2023/06/27 05:09:25;;;;;;;19.98;9.60;;;;;;;-142.57;74.82;115900.28;5014082;28;20034;-82
2023/06/27 05:11:50;;;;;;;17.77;9.13;;;;;;;-142.57;74.44;115900.28;5014206;28;20042;-85
2023/06/27 05:14:16;;;;;;;11.20;8.32;;;;;;;-142.57;72.59;115900.28;5013829;28;20068;-79
2023/06/27 05:16:42;;;;;;;17.08;10.48;;;;;;;-142.57;73.55;115900.28;5014531;28;20030;-82
2023/06/27 05:19:08;;;;;;;16.42;11.55;;;;;;;-142.57;73.49;115900.28;5015551;28;20034;-83
2023/06/27 05:21:34;;;;;;;16.13;10.35;;;;;;;-142.57;73.13;115900.28;5014058;28;20399;-82
2023/06/27 05:23:59;;;;;;;16.05;9.13;;;;;;;-142.57;73.16;115900.28;5002450;28;20045;-82
2023/06/27 05:26:25;;;;;;;17.27;10.32;;;;;;;-142.57;71.56;115900.28;4993942;28;20034;-82
2023/06/27 05:28:50;;;;;;;20.17;9.00;;;;;;;-142.57;70.82;115900.28;4994855;28;20041;-87
2023/06/27 05:31:16;;;;;;;16.52;11.57;;;;;;;-142.57;71.21;115900.28;4976723;28;20164;-83
2023/06/27 05:33:42;;;;;;;15.20;10.65;;;;;;;-142.57;71.94;115900.28;4993584;28;20092;-85
2023/06/27 05:36:07;;;;;;;16.83;9.77;;;;;;;-142.57;71.51;115900.28;4994743;28;20045;-87
2023/06/27 05:38:33;;;;;;;26.73;11.95;;;;;;;-142.57;71.78;115900.28;4994790;28;20399;-85
2023/06/27 05:40:58;;;;;;;16.05;10.70;;;;;;;-142.57;71.52;115900.28;5007109;28;20022;-86
2023/06/27 05:43:24;;;;;;;22.02;11.32;;;;;;;-142.57;70.68;115900.28;5024495;28;20040;-89
2023/06/27 05:45:50;;;;;;;14.90;9.55;;;;;;;-142.57;70.48;115900.28;4998094;28;20041;-88
2023/06/27 05:48:16;;;;;;;16.33;9.02;;;;;;;-142.57;70.84;115900.28;5017489;28;20030;-87
2023/06/27 05:50:42;;;;;;;23.77;9.93;;;;;;;-142.57;70.20;115900.28;5015476;28;20042;-89
2023/06/27 05:53:07;;;;;;;17.77;9.32;;;;;;;-142.57;70.02;115900.28;5014830;28;20148;-88
2023/06/27 05:55:33;;;;;;;20.15;9.13;;;;;;;-142.57;68.58;115900.28;4999506;28;20034;-83
2023/06/27 05:57:59;;;;;;;19.38;10.75;;;;;;;-142.57;67.96;115900.28;5002862;28;20033;-89
2023/06/27 06:00:27;;;;;;;24.60;10.88;;;;;;;-142.57;67.50;115900.28;4998788;28;20106;-87
2023/06/27 06:02:53;;;;;;;16.25;9.70;;;;;;;-142.57;67.38;115900.28;4997741;28;20038;-87
2023/06/27 06:05:19;;;;;;;29.70;10.02;;;;;;;-142.57;64.88;115900.28;4999852;28;20042;-87
2023/06/27 06:07:44;;;;;;;15.55;9.77;;;;;;;-142.57;63.65;115900.28;4999003;28;20077;-90
2023/06/27 06:10:11;;;;;;;19.50;9.10;;;;;;;-142.57;62.37;115900.28;4998800;28;20034;-86
2023/06/27 06:12:38;;;;;;;13.82;8.98;;;;;;;-142.57;60.11;115900.28;5001057;28;20048;-87
2023/06/27 06:15:04;;;;;;;19.17;10.77;;;;;;;-142.57;59.73;115900.28;5000102;28;20038;-85
2023/06/27 06:17:30;;;;;;;22.88;10.32;;;;;;;-142.57;57.68;115900.28;4999490;28;20034;-88
2023/06/27 06:19:55;;;;;;;18.90;9.18;;;;;;;-142.57;57.05;115900.28;5001344;28;20447;-84
2023/06/27 06:22:21;;;;;;;23.63;8.60;;;;;;;-142.57;56.35;115900.28;4999614;28;20031;-88
2023/06/27 06:24:46;;;;;;;16.23;9.10;;;;;;;-142.57;55.33;115900.28;4999894;28;20129;-85
2023/06/27 06:27:12;;;;;;;16.88;8.68;;;;;;;-142.57;53.96;115900.28;5002038;28;20030;-88
2023/06/27 06:29:38;;;;;;;18.48;8.55;;;;;;;-142.57;52.90;115900.28;5002217;28;20039;-91
2023/06/27 06:32:06;;;;;;;15.20;9.27;;;;;;;-142.57;52.64;115900.28;5008972;28;20026;-82
2023/06/27 06:34:34;;;;;;;11.73;7.72;;;;;;;-142.57;50.58;115900.28;5005369;28;20041;-92
2023/06/27 06:37:00;;;;;;;18.63;6.82;;;;;;;-142.57;47.56;115900.28;5009644;28;20049;-87
2023/06/27 06:39:27;;;;;;;16.67;6.75;;;;;;;-142.57;45.96;115900.28;5008440;28;20038;-85
2023/06/27 06:41:53;;;;;;;13.88;7.32;;;;;;;-142.57;47.50;115900.28;5009696;28;20038;-89
2023/06/27 06:44:41;;;;;;;11.45;6.85;;;;;;;-142.57;48.29;115900.28;5008913;28;20480;-88
2023/06/27 06:47:08;;;;;;;12.60;6.78;;;;;;;-142.57;48.29;115900.28;5008907;28;20053;-88
2023/06/27 06:49:42;;;;;;;14.45;7.00;;;;;;;-142.57;46.37;115900.28;4988304;28;20030;-86
2023/06/27 06:52:14;;;;;;;18.90;7.20;;;;;;;-142.57;47.26;115900.28;5030725;23;20499;-90
2023/06/27 06:54:43;;;;;;;17.52;7.18;;;;;;;-142.57;46.60;115900.28;5031813;28;20049;-88
2023/06/27 06:57:10;;;;;;;9.65;7.18;;;;;;;-142.57;44.18;115900.28;5044286;28;20378;-87
2023/06/27 07:02:17;;;;;;;12.68;7.25;;;;;;;-142.57;44.82;115900.28;1392123;26;20112;-87
2023/06/27 07:04:43;;;;;;;12.55;5.75;;;;;;;-142.57;44.37;115900.28;5014896;28;20034;-83
2023/06/27 07:07:08;;;;;;;13.57;6.93;;;;;;;-142.57;44.99;115900.28;5016369;28;20435;-84
2023/06/27 07:09:34;;;;;;;9.68;6.57;;;;;;;-142.57;44.71;115900.28;5018763;28;20049;-85
2023/06/27 07:11:59;;;;;;;11.32;6.63;;;;;;;-142.57;43.91;115900.28;5022036;28;20060;-85
2023/06/27 07:14:25;;;;;;;12.05;6.80;;;;;;;-142.57;41.67;115900.28;5023934;28;20044;-84
2023/06/27 07:16:50;;;;;;;26.83;7.72;;;;;;;-142.57;43.43;115900.28;5019719;28;20054;-86
2023/06/27 07:19:16;;;;;;;11.45;7.05;;;;;;;-142.57;43.55;115900.28;5017177;28;20132;-86
2023/06/27 07:21:41;;;;;;;27.15;7.65;;;;;;;-142.57;43.37;115900.28;5018795;28;20117;-84
2023/06/27 07:24:07;;;;;;;17.17;6.80;;;;;;;-142.57;42.56;115900.28;5018804;28;20018;-86
2023/06/27 07:26:32;;;;;;;14.73;5.95;;;;;;;-142.57;40.50;115900.28;5020772;28;20038;-90
2023/06/27 07:28:58;;;;;;;16.27;7.57;;;;;;;-142.57;42.82;115900.28;5020186;28;20044;-90
2023/06/27 07:31:26;;;;;;;12.18;7.13;;;;;;;-142.57;44.03;115900.28;5023251;28;20101;-88
2023/06/27 07:33:52;;;;;;;19.27;6.60;;;;;;;-142.57;43.65;115900.28;5026953;28;20045;-88
2023/06/27 07:36:17;;;;;;;15.90;7.10;;;;;;;-142.57;42.57;115900.28;5021851;28;20025;-88
2023/06/27 07:38:50;;;;;;;14.10;6.80;;;;;;;-142.57;41.57;115900.28;5026124;28;20034;-87
2023/06/27 07:41:16;;;;;;;17.85;7.15;;;;;;;-142.57;41.37;115900.28;5005429;28;20038;-88
2023/06/27 07:43:41;;;;;;;11.40;6.68;;;;;;;-142.57;41.29;115900.28;5006413;28;20044;-90
2023/06/27 07:46:10;;;;;;;10.25;6.30;;;;;;;-142.57;40.67;115900.28;5004697;28;20049;-86
2023/06/27 07:48:36;;;;;;;23.27;7.00;;;;;;;-142.57;40.72;115900.28;5026918;28;20041;-85
2023/06/27 07:51:01;;;;;;;8.85;5.88;;;;;;;-142.57;39.27;115900.28;5029771;28;20038;-86
2023/06/27 07:53:27;;;;;;;18.85;6.40;;;;;;;-142.57;39.05;115900.28;5025843;28;20114;-85
2023/06/27 07:55:52;;;;;;;8.07;5.80;;;;;;;-142.57;38.68;115900.28;5017606;28;20040;-89
2023/06/27 07:58:18;;;;;;;20.48;5.97;;;;;;;-142.57;38.74;115900.28;5018873;28;20092;-84
2023/06/27 08:00:44;;;;;;;14.48;5.90;;;;;;;-142.57;38.92;115900.28;5002690;28;20045;-85
2023/06/27 08:03:09;;;;;;;15.02;6.00;;;;;;;-142.57;38.85;115900.28;5018086;28;20403;-90
2023/06/27 08:05:38;;;;;;;13.38;6.20;;;;;;;-142.57;39.17;115900.28;5019507;28;20061;-88
2023/06/27 08:08:04;;;;;;;13.15;5.13;;;;;;;-142.57;38.36;115900.28;5018840;28;20038;-90
2023/06/27 08:10:29;;;;;;;14.73;5.65;;;;;;;-142.57;39.58;115900.28;4989812;28;20037;-88
2023/06/27 08:12:55;;;;;;;12.77;6.32;;;;;;;-142.57;40.11;115900.28;5021453;28;20022;-86
2023/06/27 08:15:22;;;;;;;14.55;5.93;;;;;;;-142.57;39.09;115900.28;4989430;28;20037;-86
2023/06/27 08:17:48;;;;;;;12.02;6.03;;;;;;;-142.57;39.23;115900.28;5025441;28;20044;-85
2023/06/27 08:20:13;;;;;;;12.60;5.38;;;;;;;-142.57;38.04;115900.28;5037278;28;20098;-85
2023/06/27 08:22:43;;;;;;;14.57;5.72;;;;;;;-142.57;37.85;115900.28;5022598;28;20041;-87
2023/06/27 08:25:09;;;;;;;11.82;5.50;;;;;;;-142.57;37.10;115900.28;5000441;28;20057;-90
2023/06/27 08:27:35;;;;;;;15.07;5.80;;;;;;;-142.57;36.53;115900.28;5008943;28;20037;-88
2023/06/27 08:30:01;;;;;;;8.60;5.68;;;;;;;-142.57;37.55;115900.28;5014289;28;20902;-90
2023/06/27 08:32:27;;;;;;;20.15;5.93;;;;;;;-142.57;36.80;115900.28;4998889;28;20510;-83
2023/06/27 08:35:05;;;;;;;11.32;6.38;;;;;;;-142.57;35.97;115900.28;5024438;28;20042;-90
2023/06/27 08:37:37;;;;;;;12.25;5.60;;;;;;;-142.57;35.41;115900.28;5007716;28;20098;-88
2023/06/27 08:40:04;;;;;;;15.98;6.78;;;;;;;-142.57;36.41;115900.28;5008798;28;20044;-87
2023/06/27 08:42:33;;;;;;;14.65;5.93;;;;;;;-142.57;35.27;115900.28;5016225;28;20030;-86
2023/06/27 08:44:59;;;;;;;14.75;5.95;;;;;;;-142.57;33.87;115900.28;5007748;28;20044;-87
2023/06/27 08:47:29;;;;;;;10.38;6.32;;;;;;;-142.57;34.85;115900.28;5011700;28;20109;-84
2023/06/27 08:50:03;;;;;;;14.27;7.38;;;;;;;-142.57;34.23;115900.28;4998676;23;20089;-84
2023/06/27 08:52:42;;;;;;;17.83;7.80;;;;;;;-142.57;33.77;115900.28;4999545;28;20030;-85
2023/06/27 08:55:22;;;;;;;9.63;6.57;;;;;;;-142.57;33.70;115900.28;4997748;28;20499;-86
2023/06/27 08:57:48;;;;;;;17.13;9.43;;;;;;;-142.57;34.68;115900.28;4965667;28;20477;-89
2023/06/27 09:00:20;;;;;;;17.20;8.48;;;;;;;-142.57;33.78;115900.28;4944782;28;20039;-85
2023/06/27 09:02:47;;;;;;;15.95;9.75;;;;;;;-142.57;34.61;115900.28;4958939;28;20062;-85
2023/06/27 09:05:13;;;;;;;13.15;8.77;;;;;;;-142.57;34.27;115900.28;5003105;28;20422;-86
2023/06/27 09:07:39;;;;;;;23.33;8.75;;;;;;;-142.57;34.37;115900.28;4988046;28;20030;-88
2023/06/27 09:10:08;;;;;;;15.70;9.88;;;;;;;-142.57;34.73;115900.28;5012509;28;20123;-86
2023/06/27 09:12:34;;;;;;;21.98;8.80;;;;;;;-142.57;34.39;115900.28;5000081;28;20040;-88
2023/06/27 09:15:03;;;;;;;26.88;9.32;;;;;;;-142.57;34.79;115900.28;4972384;28;20515;-86
2023/06/27 09:17:29;;;;;;;14.30;7.88;;;;;;;-142.57;34.55;115900.28;4955649;28;20110;-84
2023/06/27 09:19:55;;;;;;;18.17;8.63;;;;;;;-142.57;34.39;115900.28;4979414;28;20038;-86
2023/06/27 09:22:23;;;;;;;16.00;8.55;;;;;;;-142.57;34.65;115900.28;4960704;28;20108;-83
2023/06/27 09:24:48;;;;;;;14.27;10.25;;;;;;;-142.57;35.73;115900.28;4978080;28;20029;-84
2023/06/27 09:27:30;;;;;;;21.70;11.65;;;;;;;-142.57;35.60;115900.28;4998840;28;20035;-84
2023/06/27 09:30:00;;;;;;;19.08;11.27;;;;;;;-142.57;35.29;115900.28;5009016;28;20484;-82
2023/06/27 09:32:26;;;;;;;22.42;12.80;;;;;;;-142.57;34.38;115900.28;4985934;28;19925;-83
2023/06/27 09:34:52;;;;;;;24.75;13.20;;;;;;;-142.57;34.82;115900.28;4989651;28;20014;-83
2023/06/27 09:37:21;;;;;;;23.25;13.60;;;;;;;-142.57;35.21;115900.28;4959121;28;20047;-82
2023/06/27 09:39:46;;;;;;;34.30;13.95;;;;;;;-142.57;35.07;115900.28;4990183;28;20022;-85
2023/06/27 09:42:12;;;;;;;28.58;14.75;;;;;;;-142.57;33.95;115900.28;4989821;28;20460;-87
2023/06/27 09:44:37;;;;;;;29.85;14.15;;;;;;;-142.57;34.13;115900.28;4978300;28;20030;-83
2023/06/27 09:47:09;;;;;;;20.13;11.38;;;;;;;-142.57;33.67;115900.28;4968782;28;20400;-84
2023/06/27 09:49:35;;;;;;;20.08;9.63;;;;;;;-142.57;33.52;115900.28;4985495;28;20080;-84
2023/06/27 09:52:05;;;;;;;26.70;10.93;;;;;;;-142.57;32.95;115900.28;4996850;28;20444;-81
2023/06/27 09:54:46;;;;;;;33.45;13.25;;;;;;;-142.57;33.35;115900.28;4968804;28;20046;-85
2023/06/27 09:57:23;;;;;;;32.22;16.35;;;;;;;-142.57;35.05;115900.28;5005209;28;20039;-83
2023/06/27 09:59:49;;;;;;;33.35;12.68;;;;;;;-142.57;35.56;115900.28;4990251;28;20039;-82
2023/06/27 10:02:17;;;;;;;26.45;17.00;;;;;;;-142.57;35.65;115900.28;5006465;28;20095;-83
2023/06/27 10:04:48;;;;;;;23.38;14.32;;;;;;;-142.57;36.26;115900.28;4995830;28;20053;-84
2023/06/27 10:07:14;;;;;;;26.67;15.43;;;;;;;-142.57;36.31;115900.28;4991057;28;20056;-83
2023/06/27 10:09:41;;;;;;;29.80;14.52;;;;;;;-142.57;36.39;115900.28;5003308;28;20034;-82
2023/06/27 10:12:20;;;;;;;25.20;12.35;;;;;;;-142.57;35.35;115900.28;5019980;23;20058;-82
2023/06/27 10:15:08;;;;;;;25.42;14.50;;;;;;;-142.57;35.88;115900.28;5015836;28;20105;-86
2023/06/27 10:17:34;;;;;;;23.92;14.60;;;;;;;-142.57;35.94;115900.28;4991952;23;20050;-85
2023/06/27 10:20:00;;;;;;;27.42;13.80;;;;;;;-142.57;36.14;115900.28;5002278;23;20103;-85
2023/06/27 10:22:30;;;;;;;22.38;13.50;;;;;;;-142.57;35.88;115900.28;5024544;28;20475;-80
2023/06/27 10:25:00;;;;;;;26.70;13.70;;;;;;;-142.57;35.17;115900.28;5021157;28;20095;-83
2023/06/27 10:27:26;;;;;;;28.00;16.05;;;;;;;-142.57;34.90;115900.28;5027054;28;20087;-80
2023/06/27 10:29:54;;;;;;;28.80;16.65;;;;;;;-142.57;35.54;115900.28;5039597;28;20143;-83
2023/06/27 10:32:20;;;;;;;35.45;17.17;;;;;;;-142.57;35.88;115900.28;5017698;28;20045;-83
2023/06/27 10:34:46;;;;;;;32.05;11.30;;;;;;;-142.57;36.23;115900.28;5011501;28;20026;-84
2023/06/27 10:37:20;;;;;;;30.25;15.35;;;;;;;-142.57;35.66;115900.28;5015846;28;20033;-81
2023/06/27 10:39:55;;;;;;;34.75;14.07;;;;;;;-142.57;34.81;115900.28;5015370;28;20038;-81
2023/06/27 10:42:21;;;;;;;26.50;13.90;;;;;;;-142.57;34.84;115900.28;5024892;28;20479;-84
2023/06/27 10:45:06;;;;;;;25.80;11.90;;;;;;;-142.57;34.90;115900.28;5002171;28;20072;-82
2023/06/27 10:47:43;;;;;;;20.00;11.73;;;;;;;-142.57;35.24;115900.28;5000573;28;20034;-81
2023/06/27 10:50:14;;;;;;;16.67;10.07;;;;;;;-142.57;34.19;115900.28;4986813;28;20097;-83
2023/06/27 10:52:59;;;;;;;24.37;10.40;;;;;;;-142.57;33.76;115900.28;5000777;28;20054;-84
2023/06/27 10:55:52;;;;;;;;;;;;;;;;;;;;;
2023/06/27 10:58:44;;;;;;;16.50;9.27;;;;;;;-142.57;33.42;115900.28;5017777;28;20029;-82
2023/06/27 11:01:11;;;;;;;17.42;8.73;;;;;;;-142.57;33.18;115900.28;5018329;28;20037;-83
2023/06/27 11:03:38;;;;;;;12.43;6.93;;;;;;;-142.57;33.32;115900.28;5035907;28;20462;-81
2023/06/27 11:06:04;;;;;;;15.00;8.10;;;;;;;-142.57;32.23;115900.28;5035839;28;20478;-84
2023/06/27 11:08:30;;;;;;;21.20;10.07;;;;;;;-142.57;32.01;115900.28;5035893;28;20037;-83
2023/06/27 11:11:03;;;;;;;17.33;10.10;;;;;;;-142.57;33.61;115900.28;5035119;28;20387;-82